Mount Union, Texas
Current Conditions -  °F | °C
As of 12:15 PM on Thursday 27 Nov 2014 (Local Time) from KJAS Reporting Station
Clear Clear  
Wind Chill: 59°   Ceiling: Unl
Heat Index: 59°   Visibility: 10mi
Dew Point: 27°   Wind: 8mph
Humidity: 29%   Direction: 50°NE
Pressure: 30.48"   Gusts: NA
Location:  30.7133°N, 93.9985°W
Report Text: KJAS 271815Z AUTO 05007KT 10SM CLR 15/M03 A3048 RMK AO2 T01491030
Loading
Personal Weather Stations






























Interactive Weather Map New forecast layout! Learn more

10-Day Weather Forecast

Advertisements
Track Severe Weather on mobile